createdAt,value
2023-04-21T00:00:52.407Z,99471.16
2023-04-21T00:03:27.102Z,99464.16
2023-04-21T00:05:56.339Z,99469.78
2023-04-21T00:11:59.157Z,99474.03
2023-04-21T00:14:37.713Z,99462.66
2023-04-21T00:17:07.261Z,99469.50
2023-04-21T00:34:44.178Z,99449.09
2023-04-21T00:37:12.367Z,99448.84
2023-04-21T00:39:40.239Z,99449.88
2023-04-21T00:42:08.184Z,99437.63
2023-04-21T00:44:36.437Z,99437.75
2023-04-21T00:47:05.160Z,99442.50
2023-04-21T00:49:32.922Z,99434.94
2023-04-21T00:52:01.599Z,99443.06
2023-04-21T00:54:28.838Z,99445.78
2023-04-21T00:56:56.056Z,99444.38
2023-04-21T00:59:23.093Z,99433.25
2023-04-21T01:01:50.155Z,99427.88
2023-04-21T01:04:17.243Z,99427.69
2023-04-21T01:06:44.447Z,99431.16
2023-04-21T01:09:13.541Z,99430.34
2023-04-21T01:11:40.736Z,99423.13
2023-04-21T01:14:11.408Z,99425.22
2023-04-21T01:16:39.880Z,99430.78
2023-04-21T01:19:07.079Z,99437.38
2023-04-21T01:21:40.456Z,99437.97
2023-04-21T01:24:07.966Z,99440.66
2023-04-21T01:30:46.044Z,99438.94
2023-04-21T01:33:13.641Z,99438.09
2023-04-21T01:35:40.705Z,99435.41
2023-04-21T01:38:10.967Z,99432.50
2023-04-21T01:40:39.618Z,99441.97
2023-04-21T01:43:09.074Z,99434.25
2023-04-21T01:45:36.317Z,99429.31
2023-04-21T01:48:04.899Z,99426.50
2023-04-21T01:50:33.053Z,99433.13
2023-04-21T01:52:59.917Z,99427.56
2023-04-21T01:56:19.910Z,99416.22
2023-04-21T01:58:47.065Z,99423.03
2023-04-21T02:01:20.395Z,99427.38
2023-04-21T02:03:48.516Z,99422.69
2023-04-21T02:06:15.558Z,99429.72
2023-04-21T02:08:42.677Z,99429.13
2023-04-21T02:11:09.707Z,99433.72
2023-04-21T02:13:38.406Z,99443.50
2023-04-21T02:16:13.795Z,99441.66
2023-04-21T02:18:41.166Z,99432.88
2023-04-21T02:21:08.050Z,99432.03
2023-04-21T02:23:34.981Z,99437.94
2023-04-21T02:26:01.850Z,99445.22
2023-04-21T02:28:29.162Z,99432.97
2023-04-21T02:30:57.597Z,99432.13
2023-04-21T02:33:24.538Z,99427.59
2023-04-21T02:35:51.623Z,99425.13
2023-04-21T02:38:18.512Z,99433.44
2023-04-21T02:40:45.428Z,99439.59
2023-04-21T02:43:14.270Z,99443.69
2023-04-21T02:45:41.242Z,99437.56
2023-04-21T02:48:09.793Z,99418.09
2023-04-21T02:50:37.108Z,99419.16
2023-04-21T02:53:04.215Z,99423.25
2023-04-21T02:55:31.543Z,99417.53
2023-04-21T02:57:58.780Z,99422.47
2023-04-21T03:00:25.822Z,99422.03
2023-04-21T03:03:24.540Z,99423.31
2023-04-21T03:05:57.540Z,99431.59
2023-04-21T03:08:28.158Z,99441.09
2023-04-21T03:11:21.877Z,99432.50
2023-04-21T03:14:28.523Z,99432.50
2023-04-21T03:18:29.925Z,99444.25
2023-04-21T03:21:00.953Z,99426.72
2023-04-21T03:23:28.187Z,99430.19
2023-04-21T03:25:55.207Z,99430.38
2023-04-21T03:28:22.086Z,99427.28
2023-04-21T03:30:49.105Z,99426.25
2023-04-21T03:33:16.043Z,99428.16
2023-04-21T03:35:43.051Z,99425.56
2023-04-21T03:38:11.362Z,99420.47
2023-04-21T03:40:38.294Z,99424.66
2023-04-21T03:43:05.428Z,99418.94
2023-04-21T03:45:35.616Z,99419.72
2023-04-21T03:48:03.023Z,99415.88
2023-04-21T03:50:30.168Z,99412.16
2023-04-21T03:52:57.204Z,99427.00
2023-04-21T03:55:25.538Z,99427.66
2023-04-21T03:57:52.687Z,99427.47
2023-04-21T04:00:19.779Z,99427.28
2023-04-21T04:02:47.503Z,99432.06
2023-04-21T04:05:14.678Z,99417.78
2023-04-21T04:07:42.073Z,99426.63
2023-04-21T04:10:10.643Z,99422.50
2023-04-21T04:12:38.961Z,99421.03
2023-04-21T04:15:07.368Z,99419.16
2023-04-21T04:17:35.211Z,99420.56
2023-04-21T04:20:02.384Z,99435.22
2023-04-21T04:23:47.937Z,99431.03
2023-04-21T04:26:15.162Z,99428.25
2023-04-21T04:28:43.499Z,99419.13
2023-04-21T04:31:10.581Z,99418.84
2023-04-21T04:33:47.659Z,99425.75
2023-04-21T04:36:14.671Z,99431.19
2023-04-21T04:38:41.590Z,99431.84
2023-04-21T04:41:09.251Z,99432.22
2023-04-21T04:43:36.601Z,99433.28
2023-04-21T04:46:05.426Z,99424.69
2023-04-21T04:48:32.646Z,99424.97
2023-04-21T04:50:59.527Z,99434.09
2023-04-21T04:53:28.205Z,99444.25
2023-04-21T04:55:55.582Z,99444.34
2023-04-21T04:58:22.440Z,99458.16
2023-04-21T05:00:49.270Z,99442.94
2023-04-21T05:03:17.729Z,99434.88
2023-04-21T05:05:45.031Z,99453.66
2023-04-21T05:08:12.263Z,99446.28
2023-04-21T05:10:39.137Z,99463.78
2023-04-21T05:13:06.536Z,99466.84
2023-04-21T05:15:33.514Z,99471.47
2023-04-21T05:18:00.466Z,99466.59
2023-04-21T05:20:28.735Z,99475.91
2023-04-21T05:22:55.682Z,99477.72
2023-04-21T05:25:22.777Z,99468.59
2023-04-21T05:27:49.575Z,99482.28
2023-04-21T05:30:17.215Z,99490.28
2023-04-21T05:32:44.291Z,99484.28
2023-04-21T05:35:11.431Z,99475.50
2023-04-21T05:37:39.758Z,99487.22
2023-04-21T05:40:07.792Z,99476.22
2023-04-21T05:42:35.231Z,99478.25
2023-04-21T05:45:02.136Z,99486.28
2023-04-21T05:47:29.183Z,99477.59
2023-04-21T05:49:56.310Z,99478.34
2023-04-21T05:52:23.400Z,99478.84
2023-04-21T05:54:52.072Z,99490.84
2023-04-21T05:57:19.349Z,99485.41
2023-04-21T05:59:46.502Z,99483.44
2023-04-21T06:02:13.499Z,99485.94
2023-04-21T06:04:40.593Z,99497.75
2023-04-21T06:07:09.635Z,99498.16
2023-04-21T06:09:36.971Z,99498.97
2023-04-21T06:12:06.120Z,99491.56
2023-04-21T06:14:33.357Z,99488.22
2023-04-21T06:17:00.633Z,99481.56
2023-04-21T06:19:27.504Z,99480.72
2023-04-21T06:21:56.296Z,99469.56
2023-04-21T06:24:24.458Z,99465.53
2023-04-21T06:26:59.351Z,99469.53
2023-04-21T06:29:27.981Z,99465.91
2023-04-21T06:31:56.621Z,99464.44
2023-04-21T06:34:24.524Z,99462.47
2023-04-21T06:36:55.068Z,99447.47
2023-04-21T06:39:22.223Z,99449.84
2023-04-21T06:41:49.713Z,99458.97
2023-04-21T06:44:18.726Z,99456.13
2023-04-21T06:46:47.585Z,99448.56
2023-04-21T06:49:14.644Z,99459.75
2023-04-21T06:51:41.633Z,99466.78
2023-04-21T06:54:10.231Z,99475.00
2023-04-21T06:56:37.592Z,99479.72
2023-04-21T06:59:04.612Z,99487.03
2023-04-21T07:01:32.768Z,99487.94
2023-04-21T07:04:06.896Z,99476.22
2023-04-21T07:06:34.311Z,99487.25
2023-04-21T07:09:01.210Z,99480.25
2023-04-21T07:11:28.192Z,99482.16
2023-04-21T07:13:55.488Z,99470.78
2023-04-21T07:16:22.513Z,99478.16
2023-04-21T07:18:49.537Z,99467.38
2023-04-21T07:21:17.827Z,99462.25
2023-04-21T07:23:44.681Z,99450.75
2023-04-21T07:26:11.802Z,99457.84
2023-04-21T07:29:54.714Z,99465.50
2023-04-21T07:32:23.645Z,99448.31
2023-04-21T07:34:50.896Z,99435.00
2023-04-21T07:37:19.283Z,99445.28
2023-04-21T07:39:46.540Z,99434.47
2023-04-21T07:42:13.642Z,99432.63
2023-04-21T07:44:41.549Z,99431.56
2023-04-21T07:50:06.509Z,99431.22
2023-04-21T07:52:35.904Z,99428.84
2023-04-21T07:55:02.778Z,99425.78
2023-04-21T07:57:30.241Z,99422.59
2023-04-21T07:59:57.291Z,99429.28
2023-04-21T08:02:24.321Z,99432.97
2023-04-21T08:04:51.520Z,99431.16
2023-04-21T08:07:18.518Z,99435.84
2023-04-21T08:09:46.893Z,99431.31
2023-04-21T08:12:13.864Z,99427.50
2023-04-21T08:14:41.204Z,99425.69
2023-04-21T08:17:08.156Z,99424.75
2023-04-21T08:19:35.500Z,99420.25
2023-04-21T08:22:02.454Z,99420.09
2023-04-21T08:24:29.417Z,99408.88
2023-04-21T08:26:57.851Z,99402.06
2023-04-21T08:29:25.595Z,99400.72
2023-04-21T08:31:58.806Z,99410.97
2023-04-21T08:34:27.912Z,99406.06
2023-04-21T08:36:57.610Z,99408.56
2023-04-21T08:39:24.712Z,99404.25
2023-04-21T08:41:52.354Z,99408.44
2023-04-21T08:44:44.283Z,99410.34
2023-04-21T08:49:52.892Z,99399.31
2023-04-21T08:52:19.739Z,99411.91
2023-04-21T08:54:47.819Z,99397.00
2023-04-21T08:57:16.296Z,99397.47
2023-04-21T08:59:45.809Z,99402.69
2023-04-21T09:02:14.771Z,99396.88
2023-04-21T09:04:47.655Z,99396.91
2023-04-21T09:07:32.926Z,99382.47
2023-04-21T09:10:00.758Z,99374.50
2023-04-21T09:12:29.339Z,99379.03
2023-04-21T09:14:57.958Z,99384.91
2023-04-21T09:17:29.823Z,99386.78
2023-04-21T09:19:57.593Z,99389.16
2023-04-21T09:22:27.766Z,99402.31
2023-04-21T09:24:59.887Z,99401.81
2023-04-21T09:27:26.826Z,99400.69
2023-04-21T09:29:54.720Z,99387.91
2023-04-21T09:32:23.954Z,99390.38
2023-04-21T09:34:50.969Z,99382.88
2023-04-21T09:37:19.175Z,99383.97
2023-04-21T09:40:03.289Z,99382.16
2023-04-21T09:42:36.329Z,99372.84
2023-04-21T09:48:01.172Z,99364.28
2023-04-21T09:53:07.671Z,99360.44
2023-04-21T09:55:35.698Z,99362.66
2023-04-21T09:58:06.145Z,99359.03
2023-04-21T10:00:34.653Z,99349.75
2023-04-21T10:03:06.610Z,99355.38
2023-04-21T10:05:33.750Z,99344.25
2023-04-21T10:08:01.965Z,99343.22
2023-04-21T10:10:30.677Z,99338.97
2023-04-21T10:12:59.241Z,99328.25
2023-04-21T10:15:32.022Z,99327.59
2023-04-21T10:18:18.932Z,99335.41
2023-04-21T10:20:56.932Z,99335.03
2023-04-21T10:23:30.664Z,99319.13
2023-04-21T10:26:20.582Z,99326.84
2023-04-21T10:28:54.222Z,99315.88
2023-04-21T10:31:51.020Z,99319.88
2023-04-21T10:34:28.697Z,99325.34
2023-04-21T10:37:19.132Z,99317.91
2023-04-21T10:39:53.920Z,99319.31
2023-04-21T10:42:24.822Z,99312.84
2023-04-21T10:45:12.417Z,99322.59
2023-04-21T10:47:44.079Z,99318.28
2023-04-21T10:50:17.053Z,99316.75
2023-04-21T10:52:47.576Z,99312.75
2023-04-21T10:55:15.328Z,99303.78
2023-04-21T10:57:45.323Z,99295.06
2023-04-21T11:00:19.084Z,99300.84
2023-04-21T11:02:55.594Z,99285.47
2023-04-21T11:05:34.099Z,99293.63
2023-04-21T11:08:12.314Z,99284.41
2023-04-21T11:10:51.150Z,99289.91
2023-04-21T11:13:21.595Z,99286.81
2023-04-21T11:16:02.093Z,99288.88
2023-04-21T11:18:40.454Z,99289.34
2023-04-21T11:21:15.357Z,99288.06
2023-04-21T11:23:50.289Z,99275.25
2023-04-21T11:26:18.185Z,99273.03
2023-04-21T11:28:48.572Z,99268.47
2023-04-21T11:31:16.168Z,99263.22
2023-04-21T11:33:43.464Z,99262.84
2023-04-21T11:36:12.525Z,99267.34
2023-04-21T11:38:41.145Z,99268.03
2023-04-21T11:41:10.169Z,99264.72
2023-04-21T11:43:37.757Z,99269.59
2023-04-21T11:46:18.261Z,99260.63
2023-04-21T11:48:45.686Z,99262.38
2023-04-21T11:51:19.413Z,99266.91
2023-04-21T11:53:48.777Z,99272.66
2023-04-21T11:56:20.159Z,99266.22
2023-04-21T11:58:47.626Z,99260.88
2023-04-21T12:01:16.850Z,99261.47
2023-04-21T12:03:52.216Z,99257.78
2023-04-21T12:06:26.473Z,99260.06
2023-04-21T12:08:59.904Z,99265.09
2023-04-21T12:11:29.399Z,99250.91
2023-04-21T12:13:57.691Z,99253.44
2023-04-21T12:16:25.489Z,99247.59
2023-04-21T12:18:52.875Z,99246.25
2023-04-21T12:21:26.319Z,99244.81
2023-04-21T12:23:54.243Z,99252.88
2023-04-21T12:26:21.675Z,99243.91
2023-04-21T12:28:50.388Z,99249.03
2023-04-21T12:31:20.068Z,99235.81
2023-04-21T12:33:47.145Z,99239.69
2023-04-21T12:36:14.325Z,99249.66
2023-04-21T12:38:42.656Z,99243.69
2023-04-21T12:41:09.934Z,99231.59
2023-04-21T12:43:37.288Z,99224.84
2023-04-21T12:46:04.908Z,99227.38
2023-04-21T12:48:32.111Z,99226.25
2023-04-21T12:50:58.965Z,99224.97
2023-04-21T12:53:25.947Z,99218.44
2023-04-21T12:56:03.963Z,99210.31
2023-04-21T12:58:32.547Z,99200.34
2023-04-21T13:00:59.412Z,99196.47
2023-04-21T13:03:26.812Z,99197.09
2023-04-21T13:05:53.935Z,99188.13
2023-04-21T13:08:22.200Z,99198.16
2023-04-21T13:10:49.167Z,99192.06
2023-04-21T13:13:17.474Z,99189.47
2023-04-21T13:15:45.229Z,99202.25
2023-04-21T13:18:12.220Z,99191.34
2023-04-21T13:20:39.177Z,99189.53
2023-04-21T13:23:06.053Z,99187.66
2023-04-21T13:25:33.025Z,99173.53
2023-04-21T13:28:01.161Z,99178.78
2023-04-21T13:30:32.080Z,99172.03
2023-04-21T13:32:59.071Z,99167.41
2023-04-21T13:35:26.803Z,99174.94
2023-04-21T13:37:53.896Z,99167.84
2023-04-21T13:40:21.016Z,99161.88
2023-04-21T13:42:48.398Z,99155.88
2023-04-21T13:45:15.496Z,99151.28
2023-04-21T13:47:45.483Z,99155.91
2023-04-21T13:50:12.523Z,99145.00
2023-04-21T13:52:40.331Z,99140.09
2023-04-21T13:55:08.017Z,99136.25
2023-04-21T13:57:35.243Z,99134.63
2023-04-21T14:00:02.815Z,99142.75
2023-04-21T14:02:31.510Z,99133.28
2023-04-21T14:05:00.634Z,99129.72
2023-04-21T14:07:27.927Z,99125.34
2023-04-21T14:09:54.910Z,99130.53
2023-04-21T14:12:21.888Z,99133.53
2023-04-21T14:14:52.035Z,99131.91
2023-04-21T14:17:18.993Z,99127.53
2023-04-21T14:19:46.167Z,99123.13
2023-04-21T14:22:14.530Z,99114.94
2023-04-21T14:24:42.060Z,99114.97
2023-04-21T14:27:09.617Z,99109.47
2023-04-21T14:29:36.743Z,99103.47
2023-04-21T14:32:04.075Z,99088.69
2023-04-21T14:34:31.181Z,99084.56
2023-04-21T14:36:58.237Z,99082.13
2023-04-21T14:39:27.226Z,99092.47
2023-04-21T14:41:54.208Z,99080.44
2023-04-21T14:44:21.121Z,99075.50
2023-04-21T14:46:57.381Z,99070.56
2023-04-21T14:55:45.556Z,99063.75
2023-04-21T14:58:14.156Z,99058.56
2023-04-21T15:04:10.105Z,99045.66
2023-04-21T15:07:47.560Z,99043.78
2023-04-21T15:13:15.125Z,99038.81
2023-04-21T15:45:27.021Z,99038.84
2023-04-21T15:47:54.007Z,99039.06
2023-04-21T15:50:21.768Z,99027.84
2023-04-21T15:52:48.719Z,99022.34
2023-04-21T15:55:15.961Z,99032.38
2023-04-21T15:57:42.940Z,99018.09
2023-04-21T16:38:57.981Z,99002.25
2023-04-21T16:48:19.520Z,98991.38
2023-04-21T16:50:46.555Z,98992.72
2023-04-21T16:53:13.535Z,98982.34
2023-04-21T16:55:40.814Z,98988.94
2023-04-21T16:58:08.474Z,98988.44
2023-04-21T17:00:35.480Z,98998.84
2023-04-21T17:03:03.095Z,98994.19
2023-04-21T17:05:31.806Z,98996.38
2023-04-21T17:07:58.721Z,98994.47
2023-04-21T17:10:25.651Z,98990.13
2023-04-21T17:12:52.937Z,98986.28
2023-04-21T17:15:20.284Z,98996.44
2023-04-21T17:17:47.623Z,98994.00
2023-04-21T17:20:15.614Z,98982.25
2023-04-21T17:22:44.134Z,98991.34
2023-04-21T17:25:11.681Z,98990.84
2023-04-21T17:27:39.424Z,98983.47
2023-04-21T17:30:08.631Z,98987.84
2023-04-21T17:32:38.720Z,98994.13
2023-04-21T17:35:07.476Z,98994.44
2023-04-21T17:37:35.004Z,98991.75
2023-04-21T17:40:03.976Z,98989.06
2023-04-21T17:42:31.970Z,98991.81
2023-04-21T17:44:59.059Z,99000.81
2023-04-21T17:47:26.708Z,98996.72
2023-04-21T17:49:53.940Z,98993.16
2023-04-21T17:52:20.862Z,98998.88
2023-04-21T17:54:47.915Z,99010.06
2023-04-21T17:57:16.292Z,99007.59
2023-04-21T17:59:43.314Z,99014.69
2023-04-21T18:02:10.551Z,99018.22
2023-04-21T18:04:38.317Z,99027.75
2023-04-21T18:07:06.866Z,99042.78
2023-04-21T18:09:33.755Z,99053.16
2023-04-21T18:12:00.758Z,99065.69
2023-04-21T18:14:29.442Z,99091.53
2023-04-21T18:16:56.488Z,99093.97
2023-04-21T18:19:23.658Z,99087.88
2023-04-21T18:21:50.891Z,99063.63
2023-04-21T18:24:18.389Z,99054.31
2023-04-21T18:26:45.489Z,99071.69
2023-04-21T18:29:12.519Z,99079.50
2023-04-21T18:31:44.129Z,99087.63
2023-04-21T18:34:11.275Z,99076.50
2023-04-21T18:36:41.002Z,99077.78
2023-04-21T18:39:08.467Z,99071.38
2023-04-21T18:41:35.581Z,99078.16
2023-04-21T18:44:02.716Z,99075.19
2023-04-21T18:46:30.556Z,99080.97
2023-04-21T18:48:59.682Z,99082.66
2023-04-21T18:51:27.766Z,99107.59
2023-04-21T18:53:55.453Z,99106.22
2023-04-21T18:56:22.389Z,99110.63
2023-04-21T18:58:49.519Z,99118.03
2023-04-21T19:01:16.922Z,99113.09
2023-04-21T19:03:44.998Z,99119.03
2023-04-21T19:06:13.419Z,99130.88
2023-04-21T19:08:42.966Z,99129.31
2023-04-21T19:11:13.184Z,99116.53
2023-04-21T19:13:41.248Z,99117.19
2023-04-21T19:16:11.128Z,99128.94
2023-04-21T19:18:38.114Z,99120.53
2023-04-21T19:21:04.964Z,99123.53
2023-04-21T19:23:33.423Z,99120.00
2023-04-21T19:26:00.537Z,99115.09
2023-04-21T19:28:28.232Z,99124.63
2023-04-21T19:30:55.287Z,99120.00
2023-04-21T19:33:22.153Z,99128.69
2023-04-21T19:35:50.401Z,99129.72
2023-04-21T19:38:17.482Z,99139.22
2023-04-21T19:40:45.919Z,99139.94
2023-04-21T19:43:12.923Z,99141.97
2023-04-21T19:45:39.836Z,99139.50
2023-04-21T19:52:43.651Z,99138.13
2023-04-21T19:55:36.845Z,99139.97
2023-04-21T19:58:38.710Z,99146.53
2023-04-21T20:01:34.486Z,99146.44
2023-04-21T20:04:22.035Z,99140.06
2023-04-21T20:07:43.125Z,99141.38
2023-04-21T20:10:34.987Z,99150.19
2023-04-21T20:13:27.984Z,99142.44
2023-04-21T20:19:12.297Z,99156.84
2023-04-21T20:22:01.765Z,99152.56
2023-04-21T20:24:29.512Z,99149.69
2023-04-21T20:26:56.724Z,99150.69
2023-04-21T20:29:25.527Z,99172.53
2023-04-21T20:31:53.572Z,99165.94
2023-04-21T20:34:21.015Z,99169.31
2023-04-21T20:36:49.205Z,99158.56
2023-04-21T20:39:16.383Z,99168.84
2023-04-21T20:41:43.538Z,99184.63
2023-04-21T20:44:12.992Z,99172.19
2023-04-21T20:46:41.663Z,99171.72
2023-04-21T20:49:08.728Z,99173.13
2023-04-21T20:51:40.713Z,99174.19
2023-04-21T20:54:07.921Z,99173.13
2023-04-21T20:56:34.938Z,99175.00
2023-04-21T20:59:01.877Z,99173.69
2023-04-21T21:01:30.670Z,99179.47
2023-04-21T21:04:02.556Z,99168.59
2023-04-21T21:06:30.414Z,99178.81
2023-04-21T21:08:59.452Z,99179.59
2023-04-21T21:11:26.520Z,99175.66
2023-04-21T21:13:53.518Z,99174.81
2023-04-21T21:16:20.599Z,99173.59
2023-04-21T21:18:50.218Z,99175.69
2023-04-21T21:21:18.756Z,99176.34
2023-04-21T21:23:50.386Z,99181.03
2023-04-21T21:26:17.750Z,99179.72
2023-04-21T21:28:44.769Z,99175.66
2023-04-21T21:31:11.605Z,99173.03
2023-04-21T21:33:38.904Z,99170.00
2023-04-21T21:36:06.551Z,99174.25
2023-04-21T21:38:34.897Z,99161.91
2023-04-21T21:41:01.882Z,99165.69
2023-04-21T21:43:28.760Z,99168.53
2023-04-21T21:45:55.882Z,99166.72
2023-04-21T21:48:22.865Z,99169.41
2023-04-21T21:50:49.778Z,99161.53
2023-04-21T21:53:17.916Z,99165.06
2023-04-21T21:55:46.407Z,99166.94
2023-04-21T21:58:13.974Z,99155.50
2023-04-21T22:00:41.046Z,99154.59
2023-04-21T22:03:08.539Z,99158.38
2023-04-21T22:05:35.554Z,99156.38
2023-04-21T22:08:02.821Z,99151.59
2023-04-21T22:10:29.823Z,99143.13
2023-04-21T22:12:58.324Z,99148.84
2023-04-21T22:15:25.258Z,99148.13
2023-04-21T22:17:52.767Z,99141.50
2023-04-21T22:20:19.766Z,99142.31
2023-04-21T22:22:46.752Z,99146.56
2023-04-21T22:25:13.955Z,99145.41
2023-04-21T22:27:40.897Z,99144.09
2023-04-21T22:30:10.989Z,99141.84
2023-04-21T22:32:38.187Z,99151.53
2023-04-21T22:35:06.275Z,99158.28
2023-04-21T22:37:33.243Z,99155.34
2023-04-21T22:40:01.429Z,99153.53
2023-04-21T22:42:28.392Z,99160.94
2023-04-21T22:44:55.683Z,99152.69
2023-04-21T22:47:23.991Z,99146.78
2023-04-21T22:49:50.978Z,99149.84
2023-04-21T22:52:17.971Z,99145.72
2023-04-21T22:54:44.901Z,99141.50
2023-04-21T22:57:13.390Z,99142.31
2023-04-21T22:59:40.492Z,99148.31
2023-04-21T23:02:07.877Z,99145.09
2023-04-21T23:04:36.524Z,99146.78
2023-04-21T23:07:03.383Z,99152.56
2023-04-21T23:09:30.340Z,99149.34
2023-04-21T23:11:57.596Z,99142.38
2023-04-21T23:14:24.588Z,99140.19
2023-04-21T23:16:51.560Z,99140.91
2023-04-21T23:19:18.587Z,99130.41
2023-04-21T23:21:47.380Z,99131.13
2023-04-21T23:24:14.316Z,99142.56
2023-04-21T23:26:41.218Z,99143.28
2023-04-21T23:29:08.439Z,99143.28
2023-04-21T23:31:35.445Z,99145.75
2023-04-21T23:34:02.450Z,99150.63
2023-04-21T23:36:29.338Z,99148.16
2023-04-21T23:38:58.018Z,99152.75
2023-04-21T23:41:25.126Z,99149.78
2023-04-21T23:43:52.046Z,99155.09
2023-04-21T23:46:19.223Z,99151.47
2023-04-21T23:48:46.235Z,99164.78
2023-04-21T23:51:13.494Z,99154.78
2023-04-21T23:53:40.550Z,99157.00
2023-04-21T23:56:09.048Z,99147.69
2023-04-21T23:58:36.153Z,99147.13
